Weather observations for the past three days for
Fort Worth, Fort Worth Alliance Airport
Imperial (Metric)
Date Time (cdt) Wind (mph) Vis. (mi.) Weather Sky Cond. Temperature (ºF) Relative Humidity Wind Chill (°F) Heat Index (°F) Pressure Precipitation (in)
Air Dwpt 6 hour altimeter (in) sea level (mb) 1 hr 3 hr 6 hr
Max. Min.
31 10:53 S 12 G 20 10.00 Fair CLR 91.9 63 38% 93 30.05 1015.5
31 09:53 S 14 10.00 Fair CLR 88 64.9 46% 90 30.04 1015.2
31 08:53 SW 9 10.00 Fair CLR 84.9 66.9 55% 88 30.03 1015.0
31 07:53 S 10 10.00 Fair CLR 82 68 63% 85 30 1014.2
31 06:53 S 6 10.00 A Few Clouds FEW090 80.1 66.9 87.1 80.1 64% 82 29.98 1013.3
31 05:53 S 6 10.00 A Few Clouds FEW100 81 66 61% 83 29.97 1012.8
31 04:53 S 8 10.00 A Few Clouds FEW100 82.9 66 57% 85 29.96 1012.6
31 03:53 S 10 10.00 A Few Clouds FEW100 84.9 64.9 51% 87 29.96 1012.4
31 02:53 S 15 G 22 10.00 Fair CLR 86 64.9 49% 88 29.95 1012.2
31 01:53 S 12 10.00 Fair CLR 82.9 61 48% 83 29.95 1012.2
31 00:53 S 10 10.00 A Few Clouds FEW095 86 61 99 84.9 43% 86 29.95 1012.2
30 23:53 SE 9 10.00 A Few Clouds FEW095 89.1 61 39% 89 29.95 1012.0
30 22:53 SE 8 10.00 A Few Clouds FEW095 90 61 38% 90 29.94 1012.1
30 21:53 SE 7 10.00 Partly Cloudy SCT095 91.9 59 33% 91 29.93 1011.6
30 20:53 S 8 10.00 A Few Clouds FEW095 FEW250 91 57.9 33% 90 29.91 1010.8
30 19:53 S 14 10.00 A Few Clouds FEW095 FEW250 93.9 57 29% 93 29.89 1010.4
30 18:53 S 15 10.00 Partly Cloudy SCT090 98.1 55.9 100.9 98.1 24% 97 29.89 1010.3
30 17:53 SE 13 G 23 10.00 Partly Cloudy SCT090 100 55.9 23% 99 29.9 1010.6
30 16:53 SE 15 G 23 10.00 Partly Cloudy FEW050 SCT090 100 55 22% 98 29.9 1010.6
30 15:53 SE 12 G 21 10.00 Partly Cloudy FEW050 SCT090 SCT250 100.9 57 23% 100 29.92 1011.2
30 14:53 Calm 10.00 Partly Cloudy SCT090 100 57.9 25% 100 29.94 1011.9
30 13:53 SE 15 10.00 A Few Clouds FEW090 100 59 26% 100 29.96 1012.5
30 12:53 S 13 G 23 10.00 A Few Clouds FEW080 98.1 62.1 98.1 80.1 31% 99 29.99 1013.5
30 11:53 S 15 G 21 10.00 A Few Clouds FEW070 96.1 64.9 36% 99 30.01 1014.4
30 10:53 S 12 10.00 Fair CLR 93 66.9 42% 97 30.03 1014.7
30 09:53 S 13 10.00 Fair CLR 90 66 45% 93 30.02 1014.7
30 08:53 S 8 10.00 A Few Clouds FEW250 84.9 66.9 55% 88 30.02 1014.8
30 07:53 SW 6 10.00 A Few Clouds FEW250 82 68 63% 85 30 1014.2
30 06:53 S 7 10.00 A Few Clouds FEW250 81 66.9 88 81 62% 83 29.99 1013.6
30 05:53 S 6 10.00 A Few Clouds FEW250 82 66 58% 84 29.97 1012.8
30 04:53 S 9 10.00 A Few Clouds FEW250 84 64.9 53% 86 29.96 1012.5
30 03:53 S 10 10.00 A Few Clouds FEW250 84.9 64.9 51% 87 29.96 1012.3
30 02:53 SW 7 10.00 Fair CLR 84.9 63 48% 86 29.96 1012.5
30 01:53 S 9 10.00 Fair CLR 87.1 62.1 43% 88 29.96 1012.7
30 00:53 S 9 10.00 Fair CLR 84.9 62.1 99 84.9 46% 85 29.97 1012.8
29 23:53 S 10 G 21 10.00 Fair CLR 89.1 61 39% 89 29.97 1012.7
29 22:53 S 9 10.00 Fair CLR 90 61 38% 90 29.96 1012.6
29 21:53 SE 8 10.00 A Few Clouds FEW110 91 59 34% 90 29.95 1012.4
29 20:53 SE 8 10.00 A Few Clouds FEW110 91.9 59 33% 91 29.93 1011.7
29 19:53 SE 7 10.00 A Few Clouds FEW100 93.9 57 29% 93 29.92 1011.4
29 18:53 Vrbl 6 10.00 A Few Clouds FEW100 99 57 102 97 25% 98 29.92 1011.5
29 17:53 SE 10 10.00 Partly Cloudy SCT095 100.9 57.9 24% 101 29.92 1011.4
29 16:53 Vrbl 6 10.00 Partly Cloudy SCT085 100.9 57 23% 100 29.93 1011.7
29 15:53 SE 14 G 21 10.00 Partly Cloudy SCT080 100 57.9 25% 100 29.96 1012.6
29 14:53 SE 14 G 21 10.00 Partly Cloudy FEW075 SCT090 100 60.1 27% 101 29.98 1013.3
29 13:53 S 9 10.00 Partly Cloudy FEW100 SCT250 98.1 63 32% 100 30.01 1014.2
29 12:53 S 13 G 17 10.00 A Few Clouds FEW100 FEW250 97 63 98.1 77 33% 99 30.03 1015.0
29 11:53 S 7 10.00 A Few Clouds FEW250 95 64.9 37% 98 30.05 1015.7
29 10:53 SE 5 10.00 Fair CLR 91 66.9 45% 94 30.05 1015.8
29 09:53 SE 3 10.00 Fair CLR 86 66.9 53% 89 30.06 1016.1
29 08:53 S 3 10.00 Fair CLR 82 66.9 60% 85 30.06 1016.1
29 07:53 S 3 10.00 A Few Clouds FEW100 79 68 69% 81 30.05 1015.9
29 06:53 S 7 10.00 A Few Clouds FEW100 77 66.9 87.1 77 71% 79 30.04 1015.4
29 05:53 S 10 10.00 A Few Clouds FEW100 79 66.9 67% 81 30.03 1015.0
29 04:53 S 12 10.00 Fair CLR 81 66.9 62% 83 30.02 1014.8
29 03:53 S 7 10.00 Fair CLR 81 66 61% 83 30.01 1014.5
29 02:53 S 6 10.00 Fair CLR 82 64.9 56% 84 30.01 1014.4
29 01:53 S 7 10.00 Fair CLR 86 64.9 49% 88 30.02 1014.5
29 00:53 S 8 10.00 A Few Clouds FEW250 86 62.1 45% 87 30.02 1014.5
28 23:53 Vrbl 5 10.00 A Few Clouds FEW250 87.1 61 42% 87 30.01 1014.3
28 22:53 E 5 10.00 A Few Clouds FEW250 91.9 61 36% 92 30 1013.9
28 21:53 E 6 10.00 A Few Clouds FEW090 91.9 60.1 34% 92 29.99 1013.5
28 20:53 SE 3 10.00 A Few Clouds FEW080 FEW100 93.9 63 36% 95 29.97 1013.0
28 19:53 E 5 10.00 A Few Clouds FEW100 97 62.1 32% 98 29.96 1012.7
28 18:53 Vrbl 6 10.00 A Few Clouds FEW090 99 57.9 100.9 97 26% 98 29.94 1012.0
28 17:53 SE 8 10.00 A Few Clouds FEW090 100 59 26% 100 29.94 1012.0
28 16:53 Vrbl 6 10.00 Partly Cloudy SCT090 100.9 59 25% 101 29.96 1012.7
28 15:53 E 12 G 16 10.00 Partly Cloudy SCT085 100 60.1 27% 101 29.99 1013.5
28 14:53 NE 8 10.00 Partly Cloudy FEW050 SCT080 SCT250 100 60.1 27% 101 30.02 1014.5
28 13:53 NE 12 G 18 10.00 Partly Cloudy SCT050 SCT250 100 62.1 29% 102 30.04 1015.2
28 12:53 E 8 10.00 Partly Cloudy FEW050 SCT250 98.1 63 98.1 75 32% 100 30.06 1015.9
28 11:53 E 9 10.00 A Few Clouds FEW250 95 66.9 40% 99 30.08 1016.5
Date Time (cdt) Wind (mph) Vis. (mi.) Weather Sky Cond. Air Dwpt Max. Min. Relative Humidity Wind Chill (°F) Heat Index (°F) altimeter (in) sea level (mb) 1 hr 3 hr 6 hr
6 hour
Temperature (ºF) Pressure Precipitation (in)